Time;durP1;ratioP1;P1;durP2;ratioP2;P2;SDS_P1;SDS_P2;PMS_P1;PMS_P2;Temp;Humidity;BMP_temperature;BMP_pressure;BME280_temperature;BME280_humidity;BME280_pressure;Samples;Min_cycle;Max_cycle;Signal;HPM_P1;HPM_P2
2023/10/20 00:00:15;;;;;;;;;;;;;;;;;;5092280;28;19971;-63
2023/10/20 00:02:41;;;;;;;;;;;;;;;;;;5091924;28;19998;-62
2023/10/20 00:05:08;;;;;;;;;;;;;;;;;;5091933;28;19920;-62
2023/10/20 00:07:34;;;;;;;;;;;;;;;;;;5092176;28;19928;-63
2023/10/20 00:10:00;;;;;;;;;;;;;;;;;;5073854;28;19925;-63
2023/10/20 00:12:26;;;;;;;;;;;;;;;;;;5073733;28;19920;-63
2023/10/20 00:14:52;;;;;;;;;;;;;;;;;;5073897;28;20050;-63
2023/10/20 00:17:19;;;;;;;;;;;;;;;;;;5085122;28;20007;-63
2023/10/20 00:19:45;;;;;;;;;;;;;;;;;;5071785;28;19921;-63
2023/10/20 00:22:11;;;;;;;;;;;;;;;;;;5053765;28;19920;-63
2023/10/20 00:24:37;;;;;;;;;;;;;;;;;;5071914;28;20373;-62
2023/10/20 00:27:03;;;;;;;;;;;;;;;;;;5071826;28;20019;-62
2023/10/20 00:29:29;;;;;;;;;;;;;;;;;;5036957;28;20025;-62
2023/10/20 00:31:55;;;;;;;;;;;;;;;;;;5053509;28;20435;-63
2023/10/20 00:34:21;;;;;;;;;;;;;;;;;;5071794;28;19921;-63
2023/10/20 00:36:47;;;;;;;;;;;;;;;;;;5053512;28;19960;-63
2023/10/20 00:39:12;;;;;;;;;;;;;;;;;;5071732;28;20348;-64
2023/10/20 00:41:38;;;;;;;;;;;;;;;;;;5036924;28;19920;-63
2023/10/20 00:44:04;;;;;;;;;;;;;;;;;;5053510;28;20627;-63
2023/10/20 00:46:30;;;;;;;;;;;;;;;;;;5071522;28;19928;-63
2023/10/20 00:48:56;;;;;;;;;;;;;;;;;;5053557;28;19920;-63
2023/10/20 00:51:22;;;;;;;;;;;;;;;;;;5071597;28;19927;-63
2023/10/20 00:53:48;;;;;;;;;;;;;;;;;;5068066;28;19946;-62
2023/10/20 00:56:14;;;;;;;;;;;;;;;;;;5073852;28;19932;-63
2023/10/20 00:58:40;;;;;;;;;;;;;;;;;;5095330;28;20006;-63
2023/10/20 01:01:06;;;;;;;;;;;;;;;;;;5095538;28;19924;-63
2023/10/20 01:03:35;;;;;;;;;;;;;;;;;;5095547;28;19959;-63
2023/10/20 01:06:01;;;;;;;;;;;;;;;;;;5076928;28;20474;-63
2023/10/20 01:08:27;;;;;;;;;;;;;;;;;;5076928;28;19920;-63
2023/10/20 01:10:53;;;;;;;;;;;;;;;;;;5077180;28;19924;-63
2023/10/20 01:13:21;;;;;;;;;;;;;;;;;;5077080;28;19985;-63
2023/10/20 01:15:47;;;;;;;;;;;;;;;;;;5095325;28;19924;-63
2023/10/20 01:18:14;;;;;;;;;;;;;;;;;;5080309;28;20290;-62
2023/10/20 01:20:40;;;;;;;;;;;;;;;;;;5074916;28;19925;-64
2023/10/20 01:23:06;;;;;;;;;;;;;;;;;;5074943;28;19927;-63
2023/10/20 01:25:32;;;;;;;;;;;;;;;;;;5074755;28;20281;-62
2023/10/20 01:27:58;;;;;;;;;;;;;;;;;;5074711;28;19927;-62
2023/10/20 01:30:25;;;;;;;;;;;;;;;;;;5074768;28;19936;-62
2023/10/20 01:32:51;;;;;;;;;;;;;;;;;;5056384;28;19924;-63
2023/10/20 01:35:16;;;;;;;;;;;;;;;;;;5074674;28;19920;-62
2023/10/20 01:37:42;;;;;;;;;;;;;;;;;;5056420;28;19929;-63
2023/10/20 01:40:09;;;;;;;;;;;;;;;;;;5056384;28;19920;-62
2023/10/20 01:42:35;;;;;;;;;;;;;;;;;;5039554;28;19924;-62
2023/10/20 01:45:02;;;;;;;;;;;;;;;;;;5074523;28;19932;-63
2023/10/20 01:47:28;;;;;;;;;;;;;;;;;;5056110;28;19956;-63
2023/10/20 01:49:54;;;;;;;;;;;;;;;;;;5056177;28;20426;-63
2023/10/20 01:52:20;;;;;;;;;;;;;;;;;;5058760;28;20018;-62
2023/10/20 01:54:46;;;;;;;;;;;;;;;;;;5094384;28;20273;-63
2023/10/20 01:57:12;;;;;;;;;;;;;;;;;;5076138;28;19969;-63
2023/10/20 01:59:37;;;;;;;;;;;;;;;;;;5076087;28;19924;-62
2023/10/20 02:02:04;;;;;;;;;;;;;;;;;;5094077;28;20159;-62
2023/10/20 02:04:30;;;;;;;;;;;;;;;;;;5094076;28;19920;-62
2023/10/20 02:06:56;;;;;;;;;;;;;;;;;;5093958;28;19965;-62
2023/10/20 02:09:25;;;;;;;;;;;;;;;;;;5090392;23;19956;-63
2023/10/20 02:11:51;;;;;;;;;;;;;;;;;;5038673;28;19955;-63
2023/10/20 02:14:17;;;;;;;;;;;;;;;;;;5073596;28;19924;-63
2023/10/20 02:16:43;;;;;;;;;;;;;;;;;;5055471;28;19931;-62
2023/10/20 02:19:10;;;;;;;;;;;;;;;;;;5073512;28;20301;-64
2023/10/20 02:21:37;;;;;;;;;;;;;;;;;;5073650;28;19924;-63
2023/10/20 02:24:02;;;;;;;;;;;;;;;;;;5073585;28;19921;-64
2023/10/20 02:26:28;;;;;;;;;;;;;;;;;;5073264;28;19924;-64
2023/10/20 02:28:54;;;;;;;;;;;;;;;;;;5073405;28;20332;-64
2023/10/20 02:31:20;;;;;;;;;;;;;;;;;;5073433;28;19924;-63
2023/10/20 02:33:46;;;;;;;;;;;;;;;;;;5073369;28;20366;-63
2023/10/20 02:36:12;;;;;;;;;;;;;;;;;;5073463;28;19928;-64
2023/10/20 02:38:38;;;;;;;;;;;;;;;;;;5038436;28;19924;-64
2023/10/20 02:41:05;;;;;;;;;;;;;;;;;;5073334;28;20397;-64
2023/10/20 02:43:31;;;;;;;;;;;;;;;;;;5072932;28;19959;-64
2023/10/20 02:45:57;;;;;;;;;;;;;;;;;;5073003;28;19924;-64
2023/10/20 02:48:23;;;;;;;;;;;;;;;;;;5072843;28;19932;-63
2023/10/20 02:50:49;;;;;;;;;;;;;;;;;;5073079;28;19982;-63
2023/10/20 02:53:15;;;;;;;;;;;;;;;;;;5083203;28;20039;-63
2023/10/20 02:55:41;;;;;;;;;;;;;;;;;;5092933;28;20358;-64
2023/10/20 02:58:07;;;;;;;;;;;;;;;;;;5093175;28;20003;-64
2023/10/20 03:00:33;;;;;;;;;;;;;;;;;;5093052;28;19920;-64
2023/10/20 03:02:59;;;;;;;;;;;;;;;;;;5092727;28;20031;-64
2023/10/20 03:05:25;;;;;;;;;;;;;;;;;;5092783;28;19924;-63
2023/10/20 03:07:51;;;;;;;;;;;;;;;;;;5074485;28;19931;-63
2023/10/20 03:10:17;;;;;;;;;;;;;;;;;;5092663;28;19924;-62
2023/10/20 03:12:43;;;;;;;;;;;;;;;;;;5057703;28;19969;-63
2023/10/20 03:15:11;;;;;;;;;;;;;;;;;;5092904;28;19920;-63
2023/10/20 03:17:37;;;;;;;;;;;;;;;;;;5065015;28;19921;-63
2023/10/20 03:20:08;;;;;;;;;;;;;;;;;;5071682;28;19927;-63
2023/10/20 03:22:34;;;;;;;;;;;;;;;;;;5054415;28;19924;-63
2023/10/20 03:25:02;;;;;;;;;;;;;;;;;;5072296;28;19932;-63
2023/10/20 03:27:28;;;;;;;;;;;;;;;;;;5037646;28;19920;-64
2023/10/20 03:29:54;;;;;;;;;;;;;;;;;;5072337;28;20381;-64
2023/10/20 03:32:20;;;;;;;;;;;;;;;;;;5054134;28;19921;-64
2023/10/20 03:34:46;;;;;;;;;;;;;;;;;;5054004;28;19925;-63
2023/10/20 03:37:13;;;;;;;;;;;;;;;;;;5054063;28;20066;-63
2023/10/20 03:39:39;;;;;;;;;;;;;;;;;;5072267;28;19920;-63
2023/10/20 03:42:07;;;;;;;;;;;;;;;;;;5071959;28;20508;-63
2023/10/20 03:44:36;;;;;;;;;;;;;;;;;;5072086;28;19927;-63
2023/10/20 03:47:04;;;;;;;;;;;;;;;;;;5071974;28;19924;-64
2023/10/20 03:49:33;;;;;;;;;;;;;;;;;;5071621;28;20453;-64
2023/10/20 03:51:59;;;;;;;;;;;;;;;;;;5071817;28;19935;-64
2023/10/20 03:54:25;;;;;;;;;;;;;;;;;;5091858;28;19924;-63
2023/10/20 03:56:51;;;;;;;;;;;;;;;;;;5091940;28;19958;-63
2023/10/20 03:59:17;;;;;;;;;;;;;;;;;;5073781;28;19924;-65
2023/10/20 04:01:43;;;;;;;;;;;;;;;;;;5092259;28;20003;-63
2023/10/20 04:04:09;;;;;;;;;;;;;;;;;;5091998;28;19947;-64
2023/10/20 04:06:36;;;;;;;;;;;;;;;;;;5092064;28;19931;-63
2023/10/20 04:09:07;;;;;;;;;;;;;;;;;;5091778;28;20254;-64
2023/10/20 04:11:34;;;;;;;;;;;;;;;;;;5073728;28;20005;-64
2023/10/20 04:14:00;;;;;;;;;;;;;;;;;;5091803;28;20380;-64
2023/10/20 04:16:27;;;;;;;;;;;;;;;;;;5091999;28;19920;-64
2023/10/20 04:18:53;;;;;;;;;;;;;;;;;;5053769;28;19957;-63
2023/10/20 04:21:19;;;;;;;;;;;;;;;;;;5071719;28;20281;-64
2023/10/20 04:23:45;;;;;;;;;;;;;;;;;;5071734;28;19931;-64
2023/10/20 04:26:18;;;;;;;;;;;;;;;;;;5071434;28;19925;-65
2023/10/20 04:28:44;;;;;;;;;;;;;;;;;;5071548;28;19921;-64
2023/10/20 04:48:13;;;;;;;;;;;;;;;;;;5075287;28;19954;-64
2023/10/20 04:50:56;;;;;;;;;;;;;;;;;;5074884;28;20464;-64
2023/10/20 04:56:26;;;;;;;;;;;;;;;;;;5095625;28;19923;-64
2023/10/20 05:01:30;;;;;;;;;;;;;;;;;;5095370;28;19920;-64
2023/10/20 05:04:08;;;;;;;;;;;;;;;;;;5095207;28;19924;-65
2023/10/20 05:06:42;;;;;;;;;;;;;;;;;;5076884;28;19939;-64
2023/10/20 05:09:14;;;;;;;;;;;;;;;;;;5095015;28;19928;-65
2023/10/20 05:11:40;;;;;;;;;;;;;;;;;;5095277;28;19920;-65
2023/10/20 05:14:06;;;;;;;;;;;;;;;;;;5095204;28;20000;-64
2023/10/20 05:16:33;;;;;;;;;;;;;;;;;;5059394;28;20293;-63
2023/10/20 05:19:00;;;;;;;;;;;;;;;;;;5057108;28;19924;-64
2023/10/20 05:21:27;;;;;;;;;;;;;;;;;;5074377;28;19928;-64
2023/10/20 05:23:53;;;;;;;;;;;;;;;;;;5074718;28;19982;-64
2023/10/20 05:26:19;;;;;;;;;;;;;;;;;;5074329;28;19928;-64
2023/10/20 05:28:45;;;;;;;;;;;;;;;;;;5056493;28;20392;-63
2023/10/20 05:31:11;;;;;;;;;;;;;;;;;;5056467;28;19990;-65
2023/10/20 05:33:37;;;;;;;;;;;;;;;;;;5056354;28;19921;-64
2023/10/20 05:36:03;;;;;;;;;;;;;;;;;;5056281;28;20374;-64
2023/10/20 05:38:29;;;;;;;;;;;;;;;;;;5074415;28;19956;-64
2023/10/20 05:40:55;;;;;;;;;;;;;;;;;;5074097;28;20384;-64
2023/10/20 05:43:21;;;;;;;;;;;;;;;;;;5073540;28;19924;-64
2023/10/20 05:45:47;;;;;;;;;;;;;;;;;;5073671;28;20128;-64
2023/10/20 05:48:13;;;;;;;;;;;;;;;;;;5073498;28;19920;-64
2023/10/20 05:50:39;;;;;;;;;;;;;;;;;;5072970;28;19967;-64
2023/10/20 05:53:05;;;;;;;;;;;;;;;;;;5064005;28;19977;-64
2023/10/20 05:55:32;;;;;;;;;;;;;;;;;;5075087;28;20296;-65
2023/10/20 05:57:57;;;;;;;;;;;;;;;;;;5093343;28;19920;-64
2023/10/20 06:00:23;;;;;;;;;;;;;;;;;;5075056;28;19947;-64
2023/10/20 06:02:49;;;;;;;;;;;;;;;;;;5093108;28;19927;-64
2023/10/20 06:05:16;;;;;;;;;;;;;;;;;;5074742;28;19931;-64
2023/10/20 06:07:42;;;;;;;;;;;;;;;;;;5058183;28;19928;-64
2023/10/20 06:10:08;;;;;;;;;;;;;;;;;;5093927;28;19924;-63
2023/10/20 06:12:34;;;;;;;;;;;;;;;;;;5093919;28;19977;-65
2023/10/20 06:15:00;;;;;;;;;;;;;;;;;;5093384;28;20515;-64
2023/10/20 06:17:26;;;;;;;;;;;;;;;;;;5084907;28;19921;-62
2023/10/20 06:19:52;;;;;;;;;;;;;;;;;;5072777;28;20377;-63
2023/10/20 06:22:18;;;;;;;;;;;;;;;;;;5072809;28;19927;-68
2023/10/20 06:24:44;;;;;;;;;;;;;;;;;;5055544;28;19932;-69
2023/10/20 06:27:11;;;;;;;;;;;;;;;;;;5055428;28;20289;-68
2023/10/20 06:29:48;;;;;;;;;;;;;;;;;;5055309;28;19958;-69
2023/10/20 06:32:25;;;;;;;;;;;;;;;;;;5055486;28;19985;-68
2023/10/20 06:34:52;;;;;;;;;;;;;;;;;;5073443;28;19928;-68
2023/10/20 06:37:28;;;;;;;;;;;;;;;;;;5073261;28;19920;-69
2023/10/20 06:39:54;;;;;;;;;;;;;;;;;;5055364;28;19931;-68
2023/10/20 06:42:20;;;;;;;;;;;;;;;;;;5072243;28;19924;-68
2023/10/20 06:44:46;;;;;;;;;;;;;;;;;;5072285;28;19928;-68
2023/10/20 06:47:11;;;;;;;;;;;;;;;;;;5053906;28;19981;-69
2023/10/20 06:49:37;;;;;;;;;;;;;;;;;;5054034;28;19989;-68
2023/10/20 06:52:03;;;;;;;;;;;;;;;;;;5072101;28;20085;-69
2023/10/20 06:54:29;;;;;;;;;;;;;;;;;;5073896;28;19946;-69
2023/10/20 06:56:55;;;;;;;;;;;;;;;;;;5073890;28;19969;-68
2023/10/20 06:59:21;;;;;;;;;;;;;;;;;;5074344;28;20017;-69
2023/10/20 07:01:47;;;;;;;;;;;;;;;;;;5093000;28;19930;-69
2023/10/20 07:04:13;;;;;;;;;;;;;;;;;;5057298;28;19920;-69
2023/10/20 07:06:42;;;;;;;;;;;;;;;;;;5073618;28;19973;-68
2023/10/20 07:09:11;;;;;;;;;;;;;;;;;;5091775;28;19957;-68
2023/10/20 07:11:37;;;;;;;;;;;;;;;;;;5091610;28;19920;-69
2023/10/20 07:14:05;;;;;;;;;;;;;;;;;;5091514;28;19920;-69
2023/10/20 07:16:31;;;;;;;;;;;;;;;;;;5073029;28;20312;-66
2023/10/20 07:18:56;;;;;;;;;;;;;;;;;;5053370;28;19924;-68
2023/10/20 07:21:22;;;;;;;;;;;;;;;;;;5071109;28;19928;-69
2023/10/20 07:23:48;;;;;;;;;;;;;;;;;;5070984;28;20282;-69
2023/10/20 07:26:17;;;;;;;;;;;;;;;;;;5053273;28;20320;-68
2023/10/20 07:28:43;;;;;;;;;;;;;;;;;;5053536;28;19927;-69
2023/10/20 07:31:10;;;;;;;;;;;;;;;;;;5053349;28;19921;-69
2023/10/20 07:33:36;;;;;;;;;;;;;;;;;;5053129;28;19926;-68
2023/10/20 07:36:02;;;;;;;;;;;;;;;;;;5071313;28;20003;-68
2023/10/20 07:38:28;;;;;;;;;;;;;;;;;;5053550;28;19928;-68
2023/10/20 07:40:54;;;;;;;;;;;;;;;;;;5053673;28;19953;-69
2023/10/20 07:43:21;;;;;;;;;;;;;;;;;;5036663;28;19977;-69
2023/10/20 07:45:49;;;;;;;;;;;;;;;;;;5053716;28;19924;-69
2023/10/20 07:48:15;;;;;;;;;;;;;;;;;;5071608;28;19936;-68
2023/10/20 07:50:41;;;;;;;;;;;;;;;;;;5071750;28;19920;-67
2023/10/20 07:53:08;;;;;;;;;;;;;;;;;;5080960;28;19991;-68
2023/10/20 07:55:34;;;;;;;;;;;;;;;;;;5073496;28;19924;-68
2023/10/20 07:58:00;;;;;;;;;;;;;;;;;;5073474;28;19920;-68
2023/10/20 08:00:26;;;;;;;;;;;;;;;;;;5073333;28;19946;-68
2023/10/20 08:02:52;;;;;;;;;;;;;;;;;;5092050;28;19928;-67
2023/10/20 08:05:17;;;;;;;;;;;;;;;;;;5073144;28;19920;-68
2023/10/20 08:07:43;;;;;;;;;;;;;;;;;;5073566;28;19924;-68
2023/10/20 08:10:09;;;;;;;;;;;;;;;;;;5073330;28;19924;-68
2023/10/20 08:12:35;;;;;;;;;;;;;;;;;;5073729;28;19928;-68
2023/10/20 08:15:03;;;;;;;;;;;;;;;;;;5073619;28;19924;-67
2023/10/20 08:17:28;;;;;;;;;;;;;;;;;;5083281;28;19960;-67
2023/10/20 08:19:55;;;;;;;;;;;;;;;;;;5071326;28;19971;-67
2023/10/20 08:22:21;;;;;;;;;;;;;;;;;;5053073;28;19950;-66
2023/10/20 08:24:47;;;;;;;;;;;;;;;;;;5052879;28;19928;-67
2023/10/20 08:27:14;;;;;;;;;;;;;;;;;;5053067;28;19928;-67
2023/10/20 08:29:40;;;;;;;;;;;;;;;;;;5053016;28;19963;-68
2023/10/20 08:32:06;;;;;;;;;;;;;;;;;;5053208;28;19980;-68
2023/10/20 08:34:32;;;;;;;;;;;;;;;;;;5071423;28;20436;-67
2023/10/20 08:36:58;;;;;;;;;;;;;;;;;;5071199;28;19921;-67
2023/10/20 08:39:25;;;;;;;;;;;;;;;;;;5071056;28;19924;-67
2023/10/20 08:41:52;;;;;;;;;;;;;;;;;;5036498;28;19948;-67
2023/10/20 08:44:18;;;;;;;;;;;;;;;;;;5053122;28;19958;-67
2023/10/20 08:46:44;;;;;;;;;;;;;;;;;;5053013;28;19924;-67
2023/10/20 08:49:10;;;;;;;;;;;;;;;;;;5071116;28;19952;-67
2023/10/20 08:51:37;;;;;;;;;;;;;;;;;;5071321;28;19931;-66
2023/10/20 08:54:03;;;;;;;;;;;;;;;;;;5088011;28;19920;-67
2023/10/20 08:56:28;;;;;;;;;;;;;;;;;;5073424;28;19920;-67
2023/10/20 08:58:54;;;;;;;;;;;;;;;;;;5091364;28;19924;-67
2023/10/20 09:01:20;;;;;;;;;;;;;;;;;;5073039;28;19958;-67
2023/10/20 09:03:48;;;;;;;;;;;;;;;;;;5091017;28;20065;-67
2023/10/20 09:06:17;;;;;;;;;;;;;;;;;;5091377;28;19924;-67
2023/10/20 09:09:01;;;;;;;;;;;;;;;;;;5072622;28;19920;-67
2023/10/20 09:11:30;;;;;;;;;;;;;;;;;;5091384;28;19959;-67
2023/10/20 09:13:56;;;;;;;;;;;;;;;;;;5091251;28;19960;-66
2023/10/20 09:16:23;;;;;;;;;;;;;;;;;;5091220;28;20420;-66
2023/10/20 09:18:49;;;;;;;;;;;;;;;;;;5073932;28;19975;-67
2023/10/20 09:21:15;;;;;;;;;;;;;;;;;;5074838;28;19960;-66
2023/10/20 09:23:40;;;;;;;;;;;;;;;;;;5074746;28;19966;-67
2023/10/20 09:26:06;;;;;;;;;;;;;;;;;;5074605;28;19974;-67
2023/10/20 09:28:32;;;;;;;;;;;;;;;;;;5074719;28;19924;-66
2023/10/20 09:30:59;;;;;;;;;;;;;;;;;;5074379;28;19964;-66
2023/10/20 09:33:25;;;;;;;;;;;;;;;;;;5056352;28;19924;-68
2023/10/20 09:35:52;;;;;;;;;;;;;;;;;;5074371;28;19924;-67
2023/10/20 09:38:18;;;;;;;;;;;;;;;;;;5074337;28;20392;-67
2023/10/20 09:40:44;;;;;;;;;;;;;;;;;;5074383;28;19975;-68
2023/10/20 09:43:10;;;;;;;;;;;;;;;;;;5056109;28;19969;-68
2023/10/20 09:45:37;;;;;;;;;;;;;;;;;;5039449;28;19925;-67
2023/10/20 09:48:04;;;;;;;;;;;;;;;;;;5074032;28;19935;-67
2023/10/20 09:50:31;;;;;;;;;;;;;;;;;;5055985;28;20508;-66
2023/10/20 09:52:57;;;;;;;;;;;;;;;;;;5081987;28;20033;-67
2023/10/20 09:55:24;;;;;;;;;;;;;;;;;;5075906;28;19956;-66
2023/10/20 09:57:50;;;;;;;;;;;;;;;;;;5075898;28;20443;-67
2023/10/20 10:00:19;;;;;;;;;;;;;;;;;;5075951;28;20361;-66
2023/10/20 10:02:45;;;;;;;;;;;;;;;;;;5094155;28;19955;-64
2023/10/20 10:05:13;;;;;;;;;;;;;;;;;;5075766;28;19924;-65
2023/10/20 10:07:39;;;;;;;;;;;;;;;;;;5075764;28;19935;-65
2023/10/20 10:10:06;;;;;;;;;;;;;;;;;;5093744;28;19928;-65
2023/10/20 10:12:32;;;;;;;;;;;;;;;;;;5094079;28;19926;-65
2023/10/20 10:14:58;;;;;;;;;;;;;;;;;;5075897;28;19924;-65
2023/10/20 10:17:26;;;;;;;;;;;;;;;;;;5051361;28;20388;-64
2023/10/20 10:19:52;;;;;;;;;;;;;;;;;;5073420;28;19971;-64
2023/10/20 10:22:18;;;;;;;;;;;;;;;;;;5073849;28;19967;-65
2023/10/20 10:24:43;;;;;;;;;;;;;;;;;;5073486;28;19920;-65
2023/10/20 10:27:13;;;;;;;;;;;;;;;;;;5073619;28;19932;-65
2023/10/20 10:29:39;;;;;;;;;;;;;;;;;;5072868;28;20416;-64
2023/10/20 10:32:05;;;;;;;;;;;;;;;;;;5073435;28;19924;-65
2023/10/20 10:34:31;;;;;;;;;;;;;;;;;;5073337;28;19924;-64
2023/10/20 10:36:57;;;;;;;;;;;;;;;;;;5073084;28;20458;-64
2023/10/20 10:39:24;;;;;;;;;;;;;;;;;;5073426;28;19921;-65
2023/10/20 10:41:50;;;;;;;;;;;;;;;;;;5073300;28;19947;-65
2023/10/20 10:44:16;;;;;;;;;;;;;;;;;;5072988;28;20254;-65
2023/10/20 10:46:42;;;;;;;;;;;;;;;;;;5073048;28;19930;-65
2023/10/20 10:49:09;;;;;;;;;;;;;;;;;;5073128;28;20373;-65
2023/10/20 10:51:35;;;;;;;;;;;;;;;;;;5054926;28;20277;-65
2023/10/20 10:54:01;;;;;;;;;;;;;;;;;;5089794;28;19924;-65
2023/10/20 10:56:28;;;;;;;;;;;;;;;;;;5074687;28;19920;-65
2023/10/20 10:58:54;;;;;;;;;;;;;;;;;;5093024;28;19973;-64
2023/10/20 11:01:20;;;;;;;;;;;;;;;;;;5093113;28;19924;-65
2023/10/20 11:03:45;;;;;;;;;;;;;;;;;;5092958;28;20444;-64
2023/10/20 11:06:11;;;;;;;;;;;;;;;;;;5092778;28;19930;-64
2023/10/20 11:08:37;;;;;;;;;;;;;;;;;;5093044;28;19920;-64
2023/10/20 11:11:03;;;;;;;;;;;;;;;;;;5074434;28;19924;-65
2023/10/20 11:13:29;;;;;;;;;;;;;;;;;;5092630;28;19950;-65
2023/10/20 11:15:55;;;;;;;;;;;;;;;;;;5065087;28;20574;-65
2023/10/20 11:18:21;;;;;;;;;;;;;;;;;;5072360;28;19943;-65
2023/10/20 11:20:49;;;;;;;;;;;;;;;;;;5054384;28;19924;-66
2023/10/20 11:23:19;;;;;;;;;;;;;;;;;;5072241;28;19920;-64
2023/10/20 11:25:47;;;;;;;;;;;;;;;;;;5072118;28;19935;-65
2023/10/20 11:28:13;;;;;;;;;;;;;;;;;;5054060;28;19960;-65
2023/10/20 11:30:41;;;;;;;;;;;;;;;;;;5072436;28;19958;-65
2023/10/20 11:33:08;;;;;;;;;;;;;;;;;;5072084;28;19920;-65
2023/10/20 11:35:34;;;;;;;;;;;;;;;;;;5072169;28;19925;-66
2023/10/20 11:38:00;;;;;;;;;;;;;;;;;;5053818;28;20297;-65
2023/10/20 11:40:26;;;;;;;;;;;;;;;;;;5053382;28;20404;-65
2023/10/20 11:42:54;;;;;;;;;;;;;;;;;;5071220;28;21454;-66
2023/10/20 11:45:20;;;;;;;;;;;;;;;;;;5053993;28;20007;-66
2023/10/20 11:47:46;;;;;;;;;;;;;;;;;;5053821;28;19932;-65
2023/10/20 11:50:13;;;;;;;;;;;;;;;;;;5053908;28;19920;-65
2023/10/20 11:52:39;;;;;;;;;;;;;;;;;;5059163;28;19920;-65
2023/10/20 11:55:05;;;;;;;;;;;;;;;;;;5073819;28;19963;-65
2023/10/20 11:57:32;;;;;;;;;;;;;;;;;;5092179;28;19982;-64
2023/10/20 11:59:58;;;;;;;;;;;;;;;;;;5074160;28;19924;-66
2023/10/20 12:02:24;;;;;;;;;;;;;;;;;;5092093;28;20286;-65
2023/10/20 12:04:50;;;;;;;;;;;;;;;;;;5091881;28;19927;-65
2023/10/20 12:07:16;;;;;;;;;;;;;;;;;;5092070;28;19931;-65
2023/10/20 12:09:42;;;;;;;;;;;;;;;;;;5091603;28;19931;-65
2023/10/20 12:12:08;;;;;;;;;;;;;;;;;;5091924;28;20328;-65
2023/10/20 12:14:34;;;;;;;;;;;;;;;;;;5073889;28;20285;-65
2023/10/20 12:17:00;;;;;;;;;;;;;;;;;;5069291;28;19921;-65
2023/10/20 12:19:25;;;;;;;;;;;;;;;;;;5071950;28;19924;-66
2023/10/20 12:21:51;;;;;;;;;;;;;;;;;;5053634;28;19921;-65
2023/10/20 12:24:17;;;;;;;;;;;;;;;;;;5053417;28;19930;-65
2023/10/20 12:26:43;;;;;;;;;;;;;;;;;;5053707;28;20267;-67
2023/10/20 12:29:09;;;;;;;;;;;;;;;;;;5071551;28;20424;-66
2023/10/20 12:31:35;;;;;;;;;;;;;;;;;;5053592;28;19931;-65
2023/10/20 12:34:01;;;;;;;;;;;;;;;;;;5036925;28;19932;-66
2023/10/20 12:36:28;;;;;;;;;;;;;;;;;;5053427;28;20006;-65
2023/10/20 12:38:56;;;;;;;;;;;;;;;;;;5071287;28;19921;-65
2023/10/20 12:41:21;;;;;;;;;;;;;;;;;;5071324;28;20351;-65
2023/10/20 12:43:48;;;;;;;;;;;;;;;;;;5053336;28;19925;-65
2023/10/20 12:46:13;;;;;;;;;;;;;;;;;;5053530;28;20454;-65
2023/10/20 12:48:39;;;;;;;;;;;;;;;;;;5071465;28;19970;-65
2023/10/20 12:51:05;;;;;;;;;;;;;;;;;;5071330;28;19978;-65
2023/10/20 12:53:31;;;;;;;;;;;;;;;;;;5069421;28;19923;-65
2023/10/20 12:55:57;;;;;;;;;;;;;;;;;;5077110;28;19965;-65
2023/10/20 12:58:23;;;;;;;;;;;;;;;;;;5077019;28;19920;-65
2023/10/20 13:00:49;;;;;;;;;;;;;;;;;;5095528;28;20013;-65
2023/10/20 13:03:15;;;;;;;;;;;;;;;;;;5077021;28;19928;-65
2023/10/20 13:05:41;;;;;;;;;;;;;;;;;;5060213;28;19926;-65
2023/10/20 13:08:08;;;;;;;;;;;;;;;;;;5076800;28;19935;-65
2023/10/20 13:10:34;;;;;;;;;;;;;;;;;;5095045;28;19932;-64
2023/10/20 13:13:00;;;;;;;;;;;;;;;;;;5095201;28;20285;-65
2023/10/20 13:15:28;;;;;;;;;;;;;;;;;;5095307;28;19927;-65
2023/10/20 13:17:55;;;;;;;;;;;;;;;;;;5082953;28;19920;-65
2023/10/20 13:20:21;;;;;;;;;;;;;;;;;;5056749;28;19963;-64
2023/10/20 13:22:47;;;;;;;;;;;;;;;;;;5056728;28;19959;-64
2023/10/20 13:25:13;;;;;;;;;;;;;;;;;;5074505;28;19931;-64
2023/10/20 13:27:39;;;;;;;;;;;;;;;;;;5039702;28;19935;-65
2023/10/20 13:30:07;;;;;;;;;;;;;;;;;;5074479;28;20358;-65
2023/10/20 13:32:33;;;;;;;;;;;;;;;;;;5074314;28;19921;-65
2023/10/20 13:34:58;;;;;;;;;;;;;;;;;;5039561;28;20341;-65
2023/10/20 13:37:24;;;;;;;;;;;;;;;;;;5056199;28;19920;-65
2023/10/20 13:39:50;;;;;;;;;;;;;;;;;;5056159;28;19925;-65
2023/10/20 13:42:16;;;;;;;;;;;;;;;;;;5056213;28;20317;-65
2023/10/20 13:44:42;;;;;;;;;;;;;;;;;;5056111;28;19947;-65
2023/10/20 13:47:08;;;;;;;;;;;;;;;;;;5074006;28;19928;-66
2023/10/20 13:49:34;;;;;;;;;;;;;;;;;;5055961;28;20339;-65
2023/10/20 13:52:00;;;;;;;;;;;;;;;;;;5039411;28;19970;-65
2023/10/20 13:54:27;;;;;;;;;;;;;;;;;;5094123;28;19928;-65
2023/10/20 13:56:53;;;;;;;;;;;;;;;;;;5076109;28;19924;-65
2023/10/20 13:59:19;;;;;;;;;;;;;;;;;;5076155;28;19920;-65
2023/10/20 14:01:45;;;;;;;;;;;;;;;;;;5075338;28;20406;-64
2023/10/20 14:04:11;;;;;;;;;;;;;;;;;;5092153;28;19928;-64
2023/10/20 14:06:37;;;;;;;;;;;;;;;;;;5074711;28;19928;-64
2023/10/20 14:09:03;;;;;;;;;;;;;;;;;;5092939;28;20335;-64
2023/10/20 14:11:29;;;;;;;;;;;;;;;;;;5092993;28;19927;-64
2023/10/20 14:13:55;;;;;;;;;;;;;;;;;;5092931;28;19924;-64
2023/10/20 14:16:20;;;;;;;;;;;;;;;;;;5074734;28;19920;-65
2023/10/20 14:18:46;;;;;;;;;;;;;;;;;;5039108;28;19960;-65
2023/10/20 14:21:12;;;;;;;;;;;;;;;;;;5054931;28;19966;-65
2023/10/20 14:23:38;;;;;;;;;;;;;;;;;;5080814;23;19931;-62
2023/10/20 14:26:04;;;;;;;;;;;;;;;;;;5045314;28;20381;-61
2023/10/20 14:28:33;;;;;;;;;;;;;;;;;;5040311;28;19924;-62
2023/10/20 14:30:59;;;;;;;;;;;;;;;;;;5074771;28;19924;-61
2023/10/20 14:33:25;;;;;;;;;;;;;;;;;;5064215;28;19931;-60
2023/10/20 14:35:53;;;;;;;;;;;;;;;;;;5054755;28;19927;-60
2023/10/20 14:38:19;;;;;;;;;;;;;;;;;;5054485;28;19920;-60
2023/10/20 14:40:45;;;;;;;;;;;;;;;;;;5054684;28;19927;-60
2023/10/20 14:43:11;;;;;;;;;;;;;;;;;;5054640;28;19921;-60
2023/10/20 14:45:37;;;;;;;;;;;;;;;;;;5054137;28;19936;-60
2023/10/20 14:48:03;;;;;;;;;;;;;;;;;;5036630;28;19924;-60
2023/10/20 14:50:29;;;;;;;;;;;;;;;;;;5054592;28;19929;-60
2023/10/20 14:52:54;;;;;;;;;;;;;;;;;;5054840;28;20362;-60
2023/10/20 14:55:21;;;;;;;;;;;;;;;;;;5054358;28;19960;-61
2023/10/20 14:57:48;;;;;;;;;;;;;;;;;;5036615;28;19921;-61
2023/10/20 15:00:15;;;;;;;;;;;;;;;;;;5036127;28;20011;-61
2023/10/20 15:02:41;;;;;;;;;;;;;;;;;;5019890;28;19920;-62
2023/10/20 15:05:08;;;;;;;;;;;;;;;;;;5036548;28;20016;-62
2023/10/20 15:07:36;;;;;;;;;;;;;;;;;;5054398;28;19960;-61
2023/10/20 15:10:03;;;;;;;;;;;;;;;;;;5035690;28;19925;-62
2023/10/20 15:12:29;;;;;;;;;;;;;;;;;;5054179;28;19986;-62
2023/10/20 15:14:55;;;;;;;;;;;;;;;;;;5035531;28;19920;-62
2023/10/20 15:17:21;;;;;;;;;;;;;;;;;;5042570;28;20370;-62
2023/10/20 15:19:47;;;;;;;;;;;;;;;;;;5073751;28;19931;-61
2023/10/20 15:22:13;;;;;;;;;;;;;;;;;;5055992;28;19920;-62
2023/10/20 15:24:39;;;;;;;;;;;;;;;;;;5055876;28;20377;-62
2023/10/20 15:27:05;;;;;;;;;;;;;;;;;;5073493;28;20027;-62
2023/10/20 15:29:31;;;;;;;;;;;;;;;;;;5055687;28;19964;-62
2023/10/20 15:31:57;;;;;;;;;;;;;;;;;;5073586;28;19951;-62
2023/10/20 15:34:23;;;;;;;;;;;;;;;;;;5055566;28;20292;-62
2023/10/20 15:36:49;;;;;;;;;;;;;;;;;;5073574;28;20458;-62
2023/10/20 15:39:15;;;;;;;;;;;;;;;;;;5073661;28;19959;-61
2023/10/20 15:41:41;;;;;;;;;;;;;;;;;;5055617;28;20007;-62
2023/10/20 15:44:10;;;;;;;;;;;;;;;;;;5055171;28;20293;-62
2023/10/20 15:46:36;;;;;;;;;;;;;;;;;;5038635;28;20037;-62
2023/10/20 15:49:03;;;;;;;;;;;;;;;;;;5055183;28;20031;-61
2023/10/20 15:51:29;;;;;;;;;;;;;;;;;;5055670;28;19927;-62
2023/10/20 15:53:55;;;;;;;;;;;;;;;;;;5055761;28;20366;-62
2023/10/20 15:56:21;;;;;;;;;;;;;;;;;;5055500;28;19920;-62
2023/10/20 15:58:47;;;;;;;;;;;;;;;;;;5073516;28;19924;-62
2023/10/20 16:01:13;;;;;;;;;;;;;;;;;;5073417;28;19920;-63
2023/10/20 16:03:39;;;;;;;;;;;;;;;;;;5073324;28;19960;-62
2023/10/20 16:06:10;;;;;;;;;;;;;;;;;;5054969;28;19982;-62
2023/10/20 16:08:36;;;;;;;;;;;;;;;;;;5073441;28;19978;-62
2023/10/20 16:11:02;;;;;;;;;;;;;;;;;;5073366;28;19924;-61
2023/10/20 16:13:28;;;;;;;;;;;;;;;;;;5073137;28;19924;-61
2023/10/20 16:15:54;;;;;;;;;;;;;;;;;;5055230;28;20264;-61
2023/10/20 16:18:20;;;;;;;;;;;;;;;;;;5055079;28;19920;-61
2023/10/20 16:20:46;;;;;;;;;;;;;;;;;;5055102;28;20392;-61
2023/10/20 16:23:12;;;;;;;;;;;;;;;;;;5055118;28;19966;-61
2023/10/20 16:25:38;;;;;;;;;;;;;;;;;;5051698;28;20460;-62
2023/10/20 16:28:04;;;;;;;;;;;;;;;;;;5055924;28;19925;-62
2023/10/20 16:30:29;;;;;;;;;;;;;;;;;;5055999;28;20408;-64
2023/10/20 16:32:55;;;;;;;;;;;;;;;;;;5056111;28;19964;-65
2023/10/20 16:35:21;;;;;;;;;;;;;;;;;;5056472;28;20003;-65
2023/10/20 16:37:47;;;;;;;;;;;;;;;;;;5056185;28;19975;-65
2023/10/20 16:40:13;;;;;;;;;;;;;;;;;;5055977;28;19978;-65
2023/10/20 16:42:39;;;;;;;;;;;;;;;;;;5054738;28;19987;-65
2023/10/20 16:45:11;;;;;;;;;;;;;;;;;;5056307;28;19921;-65
2023/10/20 16:47:37;;;;;;;;;;;;;;;;;;5055963;28;19925;-65
2023/10/20 16:50:06;;;;;;;;;;;;;;;;;;5056031;28;19941;-64
2023/10/20 16:52:32;;;;;;;;;;;;;;;;;;5059883;28;19924;-65
2023/10/20 16:54:58;;;;;;;;;;;;;;;;;;5076026;28;19928;-65
2023/10/20 16:57:24;;;;;;;;;;;;;;;;;;5075892;28;19927;-64
2023/10/20 16:59:49;;;;;;;;;;;;;;;;;;5075789;28;20017;-64
2023/10/20 17:02:15;;;;;;;;;;;;;;;;;;5074198;28;19928;-65